sensor_id;sensor_type;location;lat;lon;timestamp;temperature;humidity
47825;DHT22;33589;48.242;14.676;2023-07-31T00:00:00;17.90;92.60
47825;DHT22;33589;48.242;14.676;2023-07-31T00:02:26;17.90;92.40
47825;DHT22;33589;48.242;14.676;2023-07-31T00:04:52;18.00;92.10
47825;DHT22;33589;48.242;14.676;2023-07-31T00:07:17;18.10;91.90
47825;DHT22;33589;48.242;14.676;2023-07-31T00:09:43;18.10;91.60
47825;DHT22;33589;48.242;14.676;2023-07-31T00:12:09;18.10;91.40
47825;DHT22;33589;48.242;14.676;2023-07-31T00:14:34;18.00;91.60
47825;DHT22;33589;48.242;14.676;2023-07-31T00:17:01;17.90;91.70
47825;DHT22;33589;48.242;14.676;2023-07-31T00:19:26;17.80;91.90
47825;DHT22;33589;48.242;14.676;2023-07-31T00:21:52;17.60;92.20
47825;DHT22;33589;48.242;14.676;2023-07-31T00:24:18;17.60;92.50
47825;DHT22;33589;48.242;14.676;2023-07-31T01:46:30;16.30;95.00
47825;DHT22;33589;48.242;14.676;2023-07-31T01:48:56;16.40;94.60
47825;DHT22;33589;48.242;14.676;2023-07-31T01:51:23;16.60;94.30
47825;DHT22;33589;48.242;14.676;2023-07-31T01:53:48;16.60;94.20
47825;DHT22;33589;48.242;14.676;2023-07-31T01:56:14;16.50;94.20
47825;DHT22;33589;48.242;14.676;2023-07-31T01:58:40;16.30;94.10
47825;DHT22;33589;48.242;14.676;2023-07-31T02:01:06;16.30;94.10
47825;DHT22;33589;48.242;14.676;2023-07-31T02:03:33;16.10;93.80
47825;DHT22;33589;48.242;14.676;2023-07-31T02:05:59;16.00;93.70
47825;DHT22;33589;48.242;14.676;2023-07-31T02:08:24;16.00;93.50
47825;DHT22;33589;48.242;14.676;2023-07-31T02:10:51;16.00;93.40
47825;DHT22;33589;48.242;14.676;2023-07-31T02:13:17;16.10;93.30
47825;DHT22;33589;48.242;14.676;2023-07-31T02:15:42;16.10;93.10
47825;DHT22;33589;48.242;14.676;2023-07-31T02:18:08;16.20;92.70
47825;DHT22;33589;48.242;14.676;2023-07-31T02:20:35;16.30;92.40
47825;DHT22;33589;48.242;14.676;2023-07-31T02:23:01;16.40;92.40
47825;DHT22;33589;48.242;14.676;2023-07-31T02:25:27;16.50;92.20
47825;DHT22;33589;48.242;14.676;2023-07-31T02:27:53;16.40;92.20
47825;DHT22;33589;48.242;14.676;2023-07-31T02:30:18;16.30;92.30
47825;DHT22;33589;48.242;14.676;2023-07-31T02:32:44;16.30;92.50
47825;DHT22;33589;48.242;14.676;2023-07-31T02:35:09;16.30;92.60
47825;DHT22;33589;48.242;14.676;2023-07-31T02:37:36;16.30;92.80
47825;DHT22;33589;48.242;14.676;2023-07-31T02:40:02;16.30;92.60
47825;DHT22;33589;48.242;14.676;2023-07-31T02:42:28;16.30;92.50
47825;DHT22;33589;48.242;14.676;2023-07-31T02:44:54;16.40;92.50
47825;DHT22;33589;48.242;14.676;2023-07-31T02:47:22;16.30;92.40
47825;DHT22;33589;48.242;14.676;2023-07-31T02:49:48;16.20;92.70
47825;DHT22;33589;48.242;14.676;2023-07-31T02:52:13;16.30;92.70
47825;DHT22;33589;48.242;14.676;2023-07-31T02:54:39;16.20;93.10
47825;DHT22;33589;48.242;14.676;2023-07-31T02:57:05;16.10;92.80
47825;DHT22;33589;48.242;14.676;2023-07-31T02:59:31;16.10;92.70
47825;DHT22;33589;48.242;14.676;2023-07-31T03:01:56;16.30;92.70
47825;DHT22;33589;48.242;14.676;2023-07-31T03:04:22;16.20;92.70
47825;DHT22;33589;48.242;14.676;2023-07-31T03:06:47;16.20;92.70
47825;DHT22;33589;48.242;14.676;2023-07-31T03:09:13;16.30;92.60
47825;DHT22;33589;48.242;14.676;2023-07-31T03:11:39;16.40;92.50
47825;DHT22;33589;48.242;14.676;2023-07-31T03:14:05;16.30;92.50
47825;DHT22;33589;48.242;14.676;2023-07-31T03:16:30;16.30;92.80
47825;DHT22;33589;48.242;14.676;2023-07-31T03:18:56;16.00;93.20
47825;DHT22;33589;48.242;14.676;2023-07-31T03:21:21;16.00;92.90
47825;DHT22;33589;48.242;14.676;2023-07-31T03:23:47;16.00;93.00
47825;DHT22;33589;48.242;14.676;2023-07-31T03:26:13;15.80;93.20
47825;DHT22;33589;48.242;14.676;2023-07-31T03:28:39;15.60;93.40
47825;DHT22;33589;48.242;14.676;2023-07-31T03:31:04;15.50;93.90
47825;DHT22;33589;48.242;14.676;2023-07-31T03:33:30;15.60;94.20
47825;DHT22;33589;48.242;14.676;2023-07-31T03:35:56;15.60;94.00
47825;DHT22;33589;48.242;14.676;2023-07-31T03:38:21;15.70;93.90
47825;DHT22;33589;48.242;14.676;2023-07-31T03:40:47;15.90;93.70
47825;DHT22;33589;48.242;14.676;2023-07-31T03:43:12;16.10;93.60
47825;DHT22;33589;48.242;14.676;2023-07-31T03:45:39;16.10;93.30
47825;DHT22;33589;48.242;14.676;2023-07-31T03:48:04;16.00;93.30
47825;DHT22;33589;48.242;14.676;2023-07-31T03:50:30;16.10;93.50
47825;DHT22;33589;48.242;14.676;2023-07-31T03:52:56;16.10;93.40
47825;DHT22;33589;48.242;14.676;2023-07-31T03:55:22;16.00;93.50
47825;DHT22;33589;48.242;14.676;2023-07-31T03:57:47;16.10;93.40
47825;DHT22;33589;48.242;14.676;2023-07-31T04:00:13;16.20;93.20
47825;DHT22;33589;48.242;14.676;2023-07-31T04:02:40;16.20;93.10
47825;DHT22;33589;48.242;14.676;2023-07-31T04:05:06;16.10;93.30
47825;DHT22;33589;48.242;14.676;2023-07-31T04:07:32;15.90;93.70
47825;DHT22;33589;48.242;14.676;2023-07-31T04:09:58;15.90;94.00
47825;DHT22;33589;48.242;14.676;2023-07-31T04:12:23;15.80;94.10
47825;DHT22;33589;48.242;14.676;2023-07-31T04:14:49;15.70;94.10
47825;DHT22;33589;48.242;14.676;2023-07-31T04:17:15;15.80;94.10
47825;DHT22;33589;48.242;14.676;2023-07-31T04:19:42;16.10;93.80
47825;DHT22;33589;48.242;14.676;2023-07-31T04:22:08;15.90;93.90
47825;DHT22;33589;48.242;14.676;2023-07-31T04:24:33;15.90;94.20
47825;DHT22;33589;48.242;14.676;2023-07-31T04:26:59;15.90;94.00
47825;DHT22;33589;48.242;14.676;2023-07-31T04:29:25;15.90;94.00
47825;DHT22;33589;48.242;14.676;2023-07-31T04:31:50;15.90;94.00
47825;DHT22;33589;48.242;14.676;2023-07-31T04:34:16;15.90;94.20
47825;DHT22;33589;48.242;14.676;2023-07-31T04:36:41;15.80;94.40
47825;DHT22;33589;48.242;14.676;2023-07-31T04:39:07;15.80;94.30
47825;DHT22;33589;48.242;14.676;2023-07-31T04:41:33;15.80;94.30
47825;DHT22;33589;48.242;14.676;2023-07-31T04:43:58;16.00;94.40
47825;DHT22;33589;48.242;14.676;2023-07-31T04:46:24;15.90;94.40
47825;DHT22;33589;48.242;14.676;2023-07-31T04:48:49;15.80;94.40
47825;DHT22;33589;48.242;14.676;2023-07-31T04:51:15;16.00;94.30
47825;DHT22;33589;48.242;14.676;2023-07-31T04:53:41;16.00;94.30
47825;DHT22;33589;48.242;14.676;2023-07-31T04:56:06;15.80;94.60
47825;DHT22;33589;48.242;14.676;2023-07-31T04:58:32;15.80;94.80
47825;DHT22;33589;48.242;14.676;2023-07-31T05:00:58;15.80;94.60
47825;DHT22;33589;48.242;14.676;2023-07-31T05:03:23;15.90;94.30
47825;DHT22;33589;48.242;14.676;2023-07-31T05:05:49;16.10;94.10
47825;DHT22;33589;48.242;14.676;2023-07-31T05:08:16;16.10;93.80
47825;DHT22;33589;48.242;14.676;2023-07-31T05:10:43;16.30;93.90
47825;DHT22;33589;48.242;14.676;2023-07-31T05:13:09;16.30;94.00
47825;DHT22;33589;48.242;14.676;2023-07-31T05:15:34;16.40;93.60
47825;DHT22;33589;48.242;14.676;2023-07-31T05:18:00;16.50;93.40
47825;DHT22;33589;48.242;14.676;2023-07-31T05:20:25;16.60;93.40
47825;DHT22;33589;48.242;14.676;2023-07-31T05:22:51;16.70;93.40
47825;DHT22;33589;48.242;14.676;2023-07-31T05:25:17;16.80;93.30
47825;DHT22;33589;48.242;14.676;2023-07-31T05:27:43;16.80;93.40
47825;DHT22;33589;48.242;14.676;2023-07-31T05:30:08;16.70;93.50
47825;DHT22;33589;48.242;14.676;2023-07-31T05:32:34;16.70;93.60
47825;DHT22;33589;48.242;14.676;2023-07-31T05:35:00;16.90;93.70
47825;DHT22;33589;48.242;14.676;2023-07-31T05:37:25;17.10;93.80
47825;DHT22;33589;48.242;14.676;2023-07-31T05:39:51;17.00;93.60
47825;DHT22;33589;48.242;14.676;2023-07-31T05:42:17;17.30;93.40
47825;DHT22;33589;48.242;14.676;2023-07-31T05:44:43;17.60;93.00
47825;DHT22;33589;48.242;14.676;2023-07-31T05:47:09;17.70;93.00
47825;DHT22;33589;48.242;14.676;2023-07-31T05:49:35;18.00;92.30
47825;DHT22;33589;48.242;14.676;2023-07-31T05:52:00;18.30;92.20
47825;DHT22;33589;48.242;14.676;2023-07-31T05:54:26;18.50;92.10
47825;DHT22;33589;48.242;14.676;2023-07-31T05:56:52;18.90;91.70
47825;DHT22;33589;48.242;14.676;2023-07-31T05:59:17;19.30;91.30
47825;DHT22;33589;48.242;14.676;2023-07-31T06:01:43;19.60;91.00
47825;DHT22;33589;48.242;14.676;2023-07-31T06:04:09;19.90;90.00
47825;DHT22;33589;48.242;14.676;2023-07-31T06:06:34;20.20;90.00
47825;DHT22;33589;48.242;14.676;2023-07-31T06:09:00;20.50;89.20
47825;DHT22;33589;48.242;14.676;2023-07-31T06:11:25;20.80;87.20
47825;DHT22;33589;48.242;14.676;2023-07-31T06:13:51;21.10;87.00
47825;DHT22;33589;48.242;14.676;2023-07-31T06:16:17;21.30;84.80
47825;DHT22;33589;48.242;14.676;2023-07-31T06:18:42;21.60;85.00
47825;DHT22;33589;48.242;14.676;2023-07-31T06:21:09;21.90;83.90
47825;DHT22;33589;48.242;14.676;2023-07-31T06:23:35;22.30;80.80
47825;DHT22;33589;48.242;14.676;2023-07-31T06:26:01;22.60;80.10
47825;DHT22;33589;48.242;14.676;2023-07-31T06:28:30;22.70;79.70
47825;DHT22;33589;48.242;14.676;2023-07-31T06:30:59;22.70;78.90
47825;DHT22;33589;48.242;14.676;2023-07-31T06:33:25;22.70;78.30
47825;DHT22;33589;48.242;14.676;2023-07-31T06:35:51;22.80;79.20
47825;DHT22;33589;48.242;14.676;2023-07-31T06:38:23;23.10;78.90
47825;DHT22;33589;48.242;14.676;2023-07-31T06:40:49;23.30;77.50
47825;DHT22;33589;48.242;14.676;2023-07-31T06:43:15;23.40;76.50
47825;DHT22;33589;48.242;14.676;2023-07-31T06:45:40;23.40;75.40
47825;DHT22;33589;48.242;14.676;2023-07-31T06:48:06;23.70;76.00
47825;DHT22;33589;48.242;14.676;2023-07-31T06:50:32;24.00;74.50
47825;DHT22;33589;48.242;14.676;2023-07-31T06:52:58;23.90;74.00
47825;DHT22;33589;48.242;14.676;2023-07-31T06:55:24;23.80;73.50
47825;DHT22;33589;48.242;14.676;2023-07-31T06:57:52;23.90;74.10
47825;DHT22;33589;48.242;14.676;2023-07-31T07:00:20;24.20;74.50
47825;DHT22;33589;48.242;14.676;2023-07-31T07:02:46;24.40;73.30
47825;DHT22;33589;48.242;14.676;2023-07-31T07:05:13;24.50;73.10
47825;DHT22;33589;48.242;14.676;2023-07-31T07:07:40;24.90;72.20
47825;DHT22;33589;48.242;14.676;2023-07-31T07:10:06;24.60;72.50
47825;DHT22;33589;48.242;14.676;2023-07-31T07:12:33;24.70;72.20
47825;DHT22;33589;48.242;14.676;2023-07-31T07:14:59;24.60;72.40
47825;DHT22;33589;48.242;14.676;2023-07-31T07:17:28;25.10;71.60
47825;DHT22;33589;48.242;14.676;2023-07-31T07:19:56;25.00;70.60
47825;DHT22;33589;48.242;14.676;2023-07-31T07:22:22;25.40;71.00
47825;DHT22;33589;48.242;14.676;2023-07-31T07:24:48;25.60;69.00
47825;DHT22;33589;48.242;14.676;2023-07-31T07:27:14;25.30;68.30
47825;DHT22;33589;48.242;14.676;2023-07-31T07:29:40;25.40;67.70
47825;DHT22;33589;48.242;14.676;2023-07-31T07:32:06;25.10;69.20
47825;DHT22;33589;48.242;14.676;2023-07-31T07:34:33;25.00;70.00
47825;DHT22;33589;48.242;14.676;2023-07-31T07:36:59;25.40;69.50
47825;DHT22;33589;48.242;14.676;2023-07-31T07:39:24;25.90;67.60
47825;DHT22;33589;48.242;14.676;2023-07-31T07:41:50;26.50;65.80
47825;DHT22;33589;48.242;14.676;2023-07-31T07:44:16;26.90;65.60
47825;DHT22;33589;48.242;14.676;2023-07-31T07:46:41;26.90;64.30
47825;DHT22;33589;48.242;14.676;2023-07-31T07:49:07;27.00;63.80
47825;DHT22;33589;48.242;14.676;2023-07-31T07:51:33;26.00;64.50
47825;DHT22;33589;48.242;14.676;2023-07-31T07:53:59;26.60;65.40
47825;DHT22;33589;48.242;14.676;2023-07-31T07:56:26;26.40;66.60
47825;DHT22;33589;48.242;14.676;2023-07-31T07:58:52;26.30;66.90
47825;DHT22;33589;48.242;14.676;2023-07-31T08:01:18;26.70;68.10
47825;DHT22;33589;48.242;14.676;2023-07-31T08:03:44;27.20;65.90
47825;DHT22;33589;48.242;14.676;2023-07-31T08:06:10;27.20;65.30
47825;DHT22;33589;48.242;14.676;2023-07-31T08:08:36;27.00;66.80
47825;DHT22;33589;48.242;14.676;2023-07-31T08:11:02;26.40;66.60
47825;DHT22;33589;48.242;14.676;2023-07-31T08:13:27;26.30;66.90
47825;DHT22;33589;48.242;14.676;2023-07-31T08:15:53;25.70;69.60
47825;DHT22;33589;48.242;14.676;2023-07-31T08:18:19;25.90;68.10
47825;DHT22;33589;48.242;14.676;2023-07-31T08:20:44;26.00;69.10
47825;DHT22;33589;48.242;14.676;2023-07-31T08:23:10;26.20;70.30
47825;DHT22;33589;48.242;14.676;2023-07-31T08:25:36;26.70;67.40
47825;DHT22;33589;48.242;14.676;2023-07-31T08:28:03;26.80;67.80
47825;DHT22;33589;48.242;14.676;2023-07-31T08:30:29;26.50;70.00
47825;DHT22;33589;48.242;14.676;2023-07-31T08:32:54;26.70;71.00
47825;DHT22;33589;48.242;14.676;2023-07-31T08:35:20;26.70;68.20
47825;DHT22;33589;48.242;14.676;2023-07-31T08:37:45;27.20;70.10
47825;DHT22;33589;48.242;14.676;2023-07-31T08:40:11;27.80;63.40
47825;DHT22;33589;48.242;14.676;2023-07-31T08:42:47;28.50;59.30
47825;DHT22;33589;48.242;14.676;2023-07-31T08:45:16;28.80;56.90
47825;DHT22;33589;48.242;14.676;2023-07-31T08:47:45;28.40;58.10
47825;DHT22;33589;48.242;14.676;2023-07-31T08:50:13;27.70;59.00
47825;DHT22;33589;48.242;14.676;2023-07-31T08:52:39;26.90;60.80
47825;DHT22;33589;48.242;14.676;2023-07-31T08:55:05;26.60;61.70
47825;DHT22;33589;48.242;14.676;2023-07-31T08:57:32;26.40;62.20
47825;DHT22;33589;48.242;14.676;2023-07-31T08:59:59;25.80;62.80
47825;DHT22;33589;48.242;14.676;2023-07-31T09:02:46;24.90;65.00
47825;DHT22;33589;48.242;14.676;2023-07-31T09:05:14;24.30;66.50
47825;DHT22;33589;48.242;14.676;2023-07-31T09:07:41;23.60;68.10
47825;DHT22;33589;48.242;14.676;2023-07-31T09:10:11;23.60;69.40
47825;DHT22;33589;48.242;14.676;2023-07-31T09:12:38;23.70;71.60
47825;DHT22;33589;48.242;14.676;2023-07-31T09:15:05;25.40;69.50
47825;DHT22;33589;48.242;14.676;2023-07-31T09:17:34;24.70;67.30
47825;DHT22;33589;48.242;14.676;2023-07-31T09:22:40;25.10;65.80
47825;DHT22;33589;48.242;14.676;2023-07-31T09:25:22;25.70;65.60
47825;DHT22;33589;48.242;14.676;2023-07-31T09:30:17;27.30;62.50
47825;DHT22;33589;48.242;14.676;2023-07-31T09:32:44;28.30;61.10
47825;DHT22;33589;48.242;14.676;2023-07-31T09:35:29;28.80;60.40
47825;DHT22;33589;48.242;14.676;2023-07-31T09:37:57;29.00;60.00
47825;DHT22;33589;48.242;14.676;2023-07-31T09:40:33;29.30;60.50
47825;DHT22;33589;48.242;14.676;2023-07-31T09:43:04;29.90;59.90
47825;DHT22;33589;48.242;14.676;2023-07-31T09:45:37;29.90;61.20
47825;DHT22;33589;48.242;14.676;2023-07-31T09:48:03;29.50;58.70
47825;DHT22;33589;48.242;14.676;2023-07-31T09:50:31;31.10;58.70
47825;DHT22;33589;48.242;14.676;2023-07-31T09:52:57;31.00;57.00
47825;DHT22;33589;48.242;14.676;2023-07-31T09:55:24;30.50;57.50
47825;DHT22;33589;48.242;14.676;2023-07-31T09:57:49;30.00;58.80
47825;DHT22;33589;48.242;14.676;2023-07-31T10:00:17;29.50;58.60
47825;DHT22;33589;48.242;14.676;2023-07-31T10:02:46;29.10;61.20
47825;DHT22;33589;48.242;14.676;2023-07-31T10:05:16;28.90;60.60
47825;DHT22;33589;48.242;14.676;2023-07-31T10:07:59;28.60;61.70
47825;DHT22;33589;48.242;14.676;2023-07-31T10:10:26;28.30;64.10
47825;DHT22;33589;48.242;14.676;2023-07-31T10:12:53;28.50;60.20
47825;DHT22;33589;48.242;14.676;2023-07-31T10:15:20;28.50;60.20
47825;DHT22;33589;48.242;14.676;2023-07-31T10:17:49;29.00;59.30
47825;DHT22;33589;48.242;14.676;2023-07-31T10:20:16;29.30;58.10
47825;DHT22;33589;48.242;14.676;2023-07-31T10:22:43;29.40;58.00
47825;DHT22;33589;48.242;14.676;2023-07-31T10:25:09;29.40;58.80
47825;DHT22;33589;48.242;14.676;2023-07-31T10:27:36;28.90;57.80
47825;DHT22;33589;48.242;14.676;2023-07-31T10:30:04;28.70;58.40
47825;DHT22;33589;48.242;14.676;2023-07-31T10:32:31;28.60;57.80
47825;DHT22;33589;48.242;14.676;2023-07-31T10:34:57;28.60;57.30
47825;DHT22;33589;48.242;14.676;2023-07-31T10:37:39;28.30;57.80
47825;DHT22;33589;48.242;14.676;2023-07-31T10:40:11;28.20;58.40
47825;DHT22;33589;48.242;14.676;2023-07-31T10:45:10;28.40;59.70
47825;DHT22;33589;48.242;14.676;2023-07-31T10:47:45;28.60;59.20
47825;DHT22;33589;48.242;14.676;2023-07-31T10:50:17;28.90;58.60
47825;DHT22;33589;48.242;14.676;2023-07-31T10:55:24;30.00;54.00
47825;DHT22;33589;48.242;14.676;2023-07-31T10:57:50;30.20;53.40
47825;DHT22;33589;48.242;14.676;2023-07-31T11:03:03;30.40;51.50
47825;DHT22;33589;48.242;14.676;2023-07-31T11:08:30;28.80;55.40
47825;DHT22;33589;48.242;14.676;2023-07-31T11:15:58;28.30;57.30
47825;DHT22;33589;48.242;14.676;2023-07-31T11:20:50;28.10;57.10
47825;DHT22;33589;48.242;14.676;2023-07-31T11:23:17;28.00;60.30
47825;DHT22;33589;48.242;14.676;2023-07-31T11:25:43;28.20;58.50
47825;DHT22;33589;48.242;14.676;2023-07-31T11:28:11;28.00;61.40
47825;DHT22;33589;48.242;14.676;2023-07-31T11:30:37;27.70;63.10
47825;DHT22;33589;48.242;14.676;2023-07-31T11:33:05;27.30;57.50
47825;DHT22;33589;48.242;14.676;2023-07-31T11:35:32;27.10;57.40
47825;DHT22;33589;48.242;14.676;2023-07-31T11:37:58;27.00;57.50
47825;DHT22;33589;48.242;14.676;2023-07-31T11:40:23;26.90;56.30
47825;DHT22;33589;48.242;14.676;2023-07-31T11:42:58;26.80;57.10
47825;DHT22;33589;48.242;14.676;2023-07-31T11:45:27;27.00;57.70
47825;DHT22;33589;48.242;14.676;2023-07-31T11:47:56;27.30;57.30
47825;DHT22;33589;48.242;14.676;2023-07-31T11:50:23;27.40;57.30
47825;DHT22;33589;48.242;14.676;2023-07-31T11:52:55;27.60;57.30
47825;DHT22;33589;48.242;14.676;2023-07-31T11:55:22;27.90;56.70
47825;DHT22;33589;48.242;14.676;2023-07-31T11:57:49;28.30;55.60
47825;DHT22;33589;48.242;14.676;2023-07-31T12:00:16;28.40;55.70
47825;DHT22;33589;48.242;14.676;2023-07-31T12:02:43;28.20;55.70
47825;DHT22;33589;48.242;14.676;2023-07-31T12:05:13;28.10;55.70
47825;DHT22;33589;48.242;14.676;2023-07-31T12:07:50;28.30;54.40
47825;DHT22;33589;48.242;14.676;2023-07-31T12:10:30;28.30;55.30
47825;DHT22;33589;48.242;14.676;2023-07-31T12:13:02;28.20;54.70
47825;DHT22;33589;48.242;14.676;2023-07-31T12:15:35;28.40;54.00
47825;DHT22;33589;48.242;14.676;2023-07-31T12:18:04;28.50;54.80
47825;DHT22;33589;48.242;14.676;2023-07-31T12:20:30;28.20;53.90
47825;DHT22;33589;48.242;14.676;2023-07-31T12:22:57;28.00;55.70
47825;DHT22;33589;48.242;14.676;2023-07-31T12:25:29;28.10;55.20
47825;DHT22;33589;48.242;14.676;2023-07-31T12:27:54;27.90;55.70
47825;DHT22;33589;48.242;14.676;2023-07-31T12:30:28;27.80;55.30
47825;DHT22;33589;48.242;14.676;2023-07-31T12:32:53;27.90;56.10
47825;DHT22;33589;48.242;14.676;2023-07-31T12:35:19;27.90;55.90
47825;DHT22;33589;48.242;14.676;2023-07-31T12:37:45;27.80;55.40
47825;DHT22;33589;48.242;14.676;2023-07-31T12:40:11;27.70;56.00
47825;DHT22;33589;48.242;14.676;2023-07-31T12:42:36;27.80;55.80
47825;DHT22;33589;48.242;14.676;2023-07-31T12:45:02;27.80;56.30
47825;DHT22;33589;48.242;14.676;2023-07-31T12:47:29;27.90;55.90
47825;DHT22;33589;48.242;14.676;2023-07-31T12:49:55;27.70;56.00
47825;DHT22;33589;48.242;14.676;2023-07-31T12:52:20;27.70;56.80
47825;DHT22;33589;48.242;14.676;2023-07-31T12:54:46;27.90;56.90
47825;DHT22;33589;48.242;14.676;2023-07-31T12:57:12;28.10;56.20
47825;DHT22;33589;48.242;14.676;2023-07-31T12:59:37;27.90;56.10
47825;DHT22;33589;48.242;14.676;2023-07-31T13:02:03;27.80;57.80
47825;DHT22;33589;48.242;14.676;2023-07-31T13:04:29;28.10;57.20
47825;DHT22;33589;48.242;14.676;2023-07-31T13:06:54;28.00;56.80
47825;DHT22;33589;48.242;14.676;2023-07-31T13:09:20;27.90;56.70
47825;DHT22;33589;48.242;14.676;2023-07-31T13:11:46;27.80;55.60
47825;DHT22;33589;48.242;14.676;2023-07-31T13:14:11;27.50;56.50
47825;DHT22;33589;48.242;14.676;2023-07-31T13:16:37;27.70;57.60
47825;DHT22;33589;48.242;14.676;2023-07-31T13:19:03;28.00;56.10
47825;DHT22;33589;48.242;14.676;2023-07-31T13:21:29;28.00;55.60
47825;DHT22;33589;48.242;14.676;2023-07-31T13:23:54;28.00;55.10
47825;DHT22;33589;48.242;14.676;2023-07-31T13:26:23;27.90;55.20
47825;DHT22;33589;48.242;14.676;2023-07-31T13:28:49;27.70;55.30
47825;DHT22;33589;48.242;14.676;2023-07-31T13:31:14;27.50;56.50
47825;DHT22;33589;48.242;14.676;2023-07-31T13:33:40;27.50;57.80
47825;DHT22;33589;48.242;14.676;2023-07-31T13:36:06;27.80;58.00
47825;DHT22;33589;48.242;14.676;2023-07-31T13:38:31;27.80;58.70
47825;DHT22;33589;48.242;14.676;2023-07-31T13:40:57;28.10;58.30
47825;DHT22;33589;48.242;14.676;2023-07-31T13:43:23;28.00;59.00
47825;DHT22;33589;48.242;14.676;2023-07-31T13:45:48;28.00;58.70
47825;DHT22;33589;48.242;14.676;2023-07-31T13:48:14;27.80;59.60
47825;DHT22;33589;48.242;14.676;2023-07-31T13:50:40;27.70;59.80
47825;DHT22;33589;48.242;14.676;2023-07-31T13:53:05;27.50;59.70
47825;DHT22;33589;48.242;14.676;2023-07-31T13:55:31;27.50;60.10
47825;DHT22;33589;48.242;14.676;2023-07-31T13:57:56;27.50;62.50
47825;DHT22;33589;48.242;14.676;2023-07-31T14:00:22;27.50;59.00
47825;DHT22;33589;48.242;14.676;2023-07-31T14:02:48;27.40;58.60
47825;DHT22;33589;48.242;14.676;2023-07-31T14:05:13;27.30;58.50
47825;DHT22;33589;48.242;14.676;2023-07-31T14:07:39;27.20;59.40
47825;DHT22;33589;48.242;14.676;2023-07-31T14:10:05;27.30;58.60
47825;DHT22;33589;48.242;14.676;2023-07-31T14:12:31;27.30;59.70
47825;DHT22;33589;48.242;14.676;2023-07-31T14:14:56;27.20;53.30
47825;DHT22;33589;48.242;14.676;2023-07-31T14:17:22;27.30;55.30
47825;DHT22;33589;48.242;14.676;2023-07-31T14:19:47;27.30;57.40
47825;DHT22;33589;48.242;14.676;2023-07-31T14:22:13;27.40;59.10
47825;DHT22;33589;48.242;14.676;2023-07-31T14:24:39;27.50;57.80
47825;DHT22;33589;48.242;14.676;2023-07-31T14:27:05;27.70;58.40
47825;DHT22;33589;48.242;14.676;2023-07-31T14:29:30;27.60;58.70
47825;DHT22;33589;48.242;14.676;2023-07-31T14:31:56;27.50;61.90
47825;DHT22;33589;48.242;14.676;2023-07-31T14:34:21;27.30;64.50
47825;DHT22;33589;48.242;14.676;2023-07-31T14:36:47;27.10;67.50
47825;DHT22;33589;48.242;14.676;2023-07-31T14:39:13;27.10;69.60
47825;DHT22;33589;48.242;14.676;2023-07-31T14:41:38;27.20;67.80
47825;DHT22;33589;48.242;14.676;2023-07-31T14:44:04;27.30;68.80
47825;DHT22;33589;48.242;14.676;2023-07-31T14:46:30;27.20;68.80
47825;DHT22;33589;48.242;14.676;2023-07-31T14:48:55;27.10;63.20
47825;DHT22;33589;48.242;14.676;2023-07-31T14:51:21;27.20;66.70
47825;DHT22;33589;48.242;14.676;2023-07-31T14:53:46;27.10;67.40
47825;DHT22;33589;48.242;14.676;2023-07-31T14:56:12;27.10;69.00
47825;DHT22;33589;48.242;14.676;2023-07-31T14:58:38;26.90;69.50
47825;DHT22;33589;48.242;14.676;2023-07-31T15:01:04;26.70;64.60
47825;DHT22;33589;48.242;14.676;2023-07-31T15:03:29;26.70;65.40
47825;DHT22;33589;48.242;14.676;2023-07-31T15:05:55;26.70;65.80
47825;DHT22;33589;48.242;14.676;2023-07-31T15:08:21;26.80;66.00
47825;DHT22;33589;48.242;14.676;2023-07-31T15:10:46;26.80;65.40
47825;DHT22;33589;48.242;14.676;2023-07-31T15:13:12;26.80;66.10
47825;DHT22;33589;48.242;14.676;2023-07-31T15:15:38;26.70;69.20
47825;DHT22;33589;48.242;14.676;2023-07-31T15:18:03;26.70;56.80
47825;DHT22;33589;48.242;14.676;2023-07-31T15:20:29;26.70;56.70
47825;DHT22;33589;48.242;14.676;2023-07-31T15:22:55;26.70;57.00
47825;DHT22;33589;48.242;14.676;2023-07-31T15:25:21;26.80;56.50
47825;DHT22;33589;48.242;14.676;2023-07-31T15:27:47;26.90;57.10
47825;DHT22;33589;48.242;14.676;2023-07-31T15:30:12;26.80;57.20
47825;DHT22;33589;48.242;14.676;2023-07-31T15:32:38;26.90;56.40
47825;DHT22;33589;48.242;14.676;2023-07-31T15:35:05;27.00;55.80
47825;DHT22;33589;48.242;14.676;2023-07-31T15:37:31;27.10;54.80
47825;DHT22;33589;48.242;14.676;2023-07-31T15:39:56;27.20;55.10
47825;DHT22;33589;48.242;14.676;2023-07-31T15:42:22;27.20;55.10
47825;DHT22;33589;48.242;14.676;2023-07-31T15:44:48;27.20;55.10
47825;DHT22;33589;48.242;14.676;2023-07-31T15:47:13;27.20;54.70
47825;DHT22;33589;48.242;14.676;2023-07-31T15:49:40;27.00;55.40
47825;DHT22;33589;48.242;14.676;2023-07-31T15:52:05;27.20;55.00
47825;DHT22;33589;48.242;14.676;2023-07-31T15:54:32;27.30;55.10
47825;DHT22;33589;48.242;14.676;2023-07-31T15:56:58;27.30;54.10
47825;DHT22;33589;48.242;14.676;2023-07-31T15:59:24;27.30;54.60
47825;DHT22;33589;48.242;14.676;2023-07-31T16:01:49;27.30;54.50
47825;DHT22;33589;48.242;14.676;2023-07-31T16:04:15;27.50;54.00
47825;DHT22;33589;48.242;14.676;2023-07-31T16:06:40;27.60;54.10
47825;DHT22;33589;48.242;14.676;2023-07-31T16:09:06;27.70;54.50
47825;DHT22;33589;48.242;14.676;2023-07-31T16:11:32;27.60;54.30
47825;DHT22;33589;48.242;14.676;2023-07-31T16:13:57;27.70;53.40
47825;DHT22;33589;48.242;14.676;2023-07-31T16:16:24;27.80;53.60
47825;DHT22;33589;48.242;14.676;2023-07-31T16:18:52;27.80;53.90
47825;DHT22;33589;48.242;14.676;2023-07-31T16:21:18;27.80;55.00
47825;DHT22;33589;48.242;14.676;2023-07-31T16:23:43;27.70;55.50
47825;DHT22;33589;48.242;14.676;2023-07-31T16:26:09;27.70;55.60
47825;DHT22;33589;48.242;14.676;2023-07-31T16:28:35;27.70;56.40
47825;DHT22;33589;48.242;14.676;2023-07-31T16:31:00;27.90;55.80
47825;DHT22;33589;48.242;14.676;2023-07-31T16:33:26;28.10;55.50
47825;DHT22;33589;48.242;14.676;2023-07-31T16:35:51;28.40;55.20
47825;DHT22;33589;48.242;14.676;2023-07-31T16:38:19;28.50;53.70
47825;DHT22;33589;48.242;14.676;2023-07-31T16:40:44;28.50;53.40
47825;DHT22;33589;48.242;14.676;2023-07-31T16:43:12;28.50;52.30
47825;DHT22;33589;48.242;14.676;2023-07-31T16:45:38;28.40;53.10
47825;DHT22;33589;48.242;14.676;2023-07-31T16:48:03;28.40;53.40
47825;DHT22;33589;48.242;14.676;2023-07-31T16:50:29;28.30;52.30
47825;DHT22;33589;48.242;14.676;2023-07-31T16:52:55;28.30;52.80